Vg 117 Kungsvik — SBTH — position and weather

sailwx.info

Track history (hours):
 
Tides and Currents Weather Stations Pressure Air Temp Water Temp Dewpoint Dewpoint Depression Visibility Wind Speed Wind Dir Waves Ship Positions

Vg 117 Kungsvik

Last reported at 2015-Jul-04 12:20 UTC. Time now 2015-Jul-04 18:55 UTC.
Position N 57°04' E 012°16'.

Length 17 m.

Type: Fishing. MMSI: 266137000.

Date/timePositionNaut miles runAvg speedWind from/ knotsBaromVisibWave heightAir tempDewpointWater temp
2015-Jul-04 12:20N 57°04' E 012°16'0 0.0
2015-Jul-03 23:20N 57°04' E 012°16'0 0.0
2015-Jul-03 05:17N 57°03' E 012°16'5 5.9
2015-Jul-03 04:30N 57°04' E 012°08'12 1.9
2015-Jul-02 22:08N 56°60' E 011°47'1 1.6
2015-Jul-02 21:25N 57°01' E 011°46'2 2.5
2015-Jul-02 20:32N 57°02' E 011°49'6 3.2
2015-Jul-02 18:33N 57°03' E 012°01'8 7.7
2015-Jul-02 17:32N 57°03' E 012°15'1 0.1
2015-Jul-02 06:26N 57°04' E 012°16'4 4.7
2015-Jul-02 05:33N 57°03' E 012°09'6 5.6
2015-Jul-02 04:29N 57°03' E 011°58'2 2.0
2015-Jul-02 03:25N 57°02' E 011°54'3 2.5
2015-Jul-02 02:13N 57°01' E 011°49'2 2.6
2015-Jul-02 01:28N 56°60' E 011°46'2 1.7
2015-Jul-02 00:31N 57°01' E 011°48'2 2.6
2015-Jul-01 23:33N 57°02' E 011°52'3 1.5
2015-Jul-01 21:18N 57°00' E 011°47'8 2.9
2015-Jul-01 18:29N 57°03' E 012°01'8 7.4
2015-Jul-01 17:26N 57°03' E 012°15'1 0.2
2015-Jul-01 15:07N 57°04' E 012°16'0 0.0
2015-Jul-01 14:19N 57°04' E 012°16'0 0.0
2015-Jul-01 13:31N 57°04' E 012°16'0 0.0
2015-Jul-01 12:07N 57°04' E 012°16'0 0.0
2015-Jul-01 10:25N 57°04' E 012°16'0 0.0
2015-Jul-01 08:25N 57°04' E 012°16'0 0.0
2015-Jul-01 07:25N 57°04' E 012°16'5 2.6
2015-Jul-01 05:25N 57°03' E 012°07'5 5.4
2015-Jul-01 04:33N 57°03' E 011°58'2 2.0
2015-Jul-01 03:33N 57°03' E 011°55'5 2.3
2015-Jul-01 01:13N 57°00' E 011°46'2 2.3
2015-Jul-01 00:33N 57°01' E 011°49'3 2.6
2015-Jun-30 23:33N 57°02' E 011°53'1 1.3
2015-Jun-30 22:33N 57°01' E 011°51'2 1.3
2015-Jun-30 21:08N 57°00' E 011°48'2 2.6
2015-Jun-30 20:26N 57°01' E 011°51'2 2.5
2015-Jun-30 19:33N 57°03' E 011°54'4 3.6
2015-Jun-30 18:32N 57°03' E 012°01'8 7.4
2015-Jun-30 17:28N 57°03' E 012°16'0 0.1
2015-Jun-30 12:32N 57°04' E 012°16'0 0.0
2015-Jun-30 11:32N 57°04' E 012°16'0 0.0
2015-Jun-30 08:26N 57°04' E 012°16'0 0.0
2015-Jun-30 07:32N 57°04' E 012°16'0 0.0
2015-Jun-30 06:26N 57°04' E 012°16'4 4.4
2015-Jun-30 05:30N 57°03' E 012°09'6 5.1
2015-Jun-30 04:16N 57°03' E 011°57'6 1.0
2015-Jun-29 22:22N 56°58' E 011°50'3 1.7
2015-Jun-29 20:30N 57°01' E 011°51'3 2.5
2015-Jun-29 19:16N 57°03' E 011°56'3 4.2
2015-Jun-29 18:30N 57°03' E 012°02'7 7.6
2015-Jun-29 17:33N 57°03' E 012°15'1 0.8
2015-Jun-29 16:30N 57°04' E 012°16'0 0.0
2015-Jun-29 08:24N 57°04' E 012°16'0 0.0
2015-Jun-29 07:18N 57°04' E 012°16'1 1.0
2015-Jun-29 06:31N 57°03' E 012°15'3 3.4
2015-Jun-29 05:31N 57°03' E 012°09'11 1.4
2015-Jun-28 21:33N 56°59' E 011°49'2 1.8
2015-Jun-28 20:33N 57°01' E 011°50'3 2.5
2015-Jun-28 19:32N 57°03' E 011°54'3 3.1
2015-Jun-28 18:33N 57°03' E 011°60'7 6.9
2015-Jun-28 17:33N 57°03' E 012°12'2 2.2
2015-Jun-28 16:30N 57°04' E 012°16'0 0.0
2015-Jun-28 15:30N 57°04' E 012°16'0 0.0
2015-Jun-28 14:30N 57°04' E 012°16'0 0.0
2015-Jun-28 13:30N 57°04' E 012°16'0 0.0
2015-Jun-28 12:30N 57°04' E 012°16'0 0.0
2015-Jun-28 11:30N 57°04' E 012°16'0 0.0
2015-Jun-28 10:30N 57°04' E 012°16'0 0.0
2015-Jun-28 09:30N 57°04' E 012°16'0 0.0
2015-Jun-28 08:30N 57°04' E 012°16'0 0.0
2015-Jun-28 07:30N 57°04' E 012°16'0 0.0
2015-Jun-28 06:30N 57°04' E 012°16'0 0.0
2015-Jun-28 05:30N 57°04' E 012°16'0 0.0
2015-Jun-28 04:30N 57°04' E 012°16'0 0.0
2015-Jun-28 03:30N 57°04' E 012°16'0 0.0
2015-Jun-28 02:24N 57°04' E 012°16'0 0.0
2015-Jun-28 01:24N 57°04' E 012°16'0 0.0
2015-Jun-28 00:30N 57°04' E 012°16'0 0.0
2015-Jun-27 23:30N 57°04' E 012°16'0 0.0
2015-Jun-27 22:30N 57°04' E 012°16'0 0.0
2015-Jun-27 21:30N 57°04' E 012°16'0 0.0
2015-Jun-27 20:30N 57°04' E 012°16'0 0.0
2015-Jun-27 19:24N 57°04' E 012°16'0 0.0
2015-Jun-27 18:30N 57°04' E 012°16'0 0.0
2015-Jun-27 17:30N 57°04' E 012°16'0 0.0
2015-Jun-27 16:30N 57°04' E 012°16'0 0.0
2015-Jun-27 15:30N 57°04' E 012°16'0 0.0
2015-Jun-27 14:30N 57°04' E 012°16'0 0.0
2015-Jun-27 13:30N 57°04' E 012°16'0 0.0
2015-Jun-27 12:30N 57°04' E 012°16'0 0.0
2015-Jun-27 11:30N 57°04' E 012°16'0 0.0
2015-Jun-27 10:30N 57°04' E 012°16'0 0.0
2015-Jun-27 09:24N 57°04' E 012°16'0 0.0
2015-Jun-27 08:30N 57°04' E 012°16'0 0.0
2015-Jun-27 07:30N 57°04' E 012°16'0 0.0
2015-Jun-27 06:24N 57°04' E 012°16'0 0.0
2015-Jun-27 05:24N 57°04' E 012°16'0 0.0
2015-Jun-27 04:30N 57°04' E 012°16'0 0.0
2015-Jun-27 03:30N 57°04' E 012°16'0 0.0
2015-Jun-27 02:30N 57°04' E 012°16'0 0.0
2015-Jun-27 01:24N 57°04' E 012°16'0 0.0
2015-Jun-27 00:24N 57°04' E 012°16'0 0.0
2015-Jun-26 23:30N 57°04' E 012°16'0 0.0
2015-Jun-26 22:30N 57°04' E 012°16'0 0.0
2015-Jun-26 21:30N 57°04' E 012°16'0 0.0
2015-Jun-26 20:24N 57°04' E 012°16'0 0.0
2015-Jun-26 19:24N 57°04' E 012°16'0 0.0
2015-Jun-26 18:30N 57°04' E 012°16'0 0.0
2015-Jun-26 17:30N 57°04' E 012°16'0 0.0
2015-Jun-26 16:24N 57°04' E 012°16'0 0.0
2015-Jun-26 15:30N 57°04' E 012°16'0 0.0
2015-Jun-26 14:30N 57°04' E 012°16'0 0.0
2015-Jun-26 13:30N 57°04' E 012°16'0 0.0
2015-Jun-26 11:30N 57°04' E 012°16'0 0.0
2015-Jun-26 10:30N 57°04' E 012°16'0 0.0
2015-Jun-26 09:30N 57°04' E 012°16'0 0.0
2015-Jun-26 08:30N 57°04' E 012°16'0 0.0
2015-Jun-26 07:18N 57°04' E 012°16'0 0.0
2015-Jun-26 06:24N 57°04' E 012°16'0 0.0
2015-Jun-26 05:24N 57°04' E 012°16'0 0.0
2015-Jun-26 04:30N 57°04' E 012°16'0 0.0
2015-Jun-26 03:30N 57°04' E 012°16'0 0.0
2015-Jun-26 02:30N 57°04' E 012°16'0 0.0
2015-Jun-26 01:12N 57°04' E 012°16'0 0.0
2015-Jun-26 00:30N 57°04' E 012°16'0 0.0
2015-Jun-25 23:30N 57°04' E 012°16'0 0.0
2015-Jun-25 22:30N 57°04' E 012°16'0 0.0
2015-Jun-25 21:12N 57°04' E 012°16'0 0.0
2015-Jun-25 20:30N 57°04' E 012°16'0 0.0
2015-Jun-25 19:30N 57°04' E 012°16'0 0.0
2015-Jun-25 18:18N 57°04' E 012°16'0 0.0
2015-Jun-25 17:30N 57°04' E 012°16'0 0.0
2015-Jun-25 16:24N 57°04' E 012°16'0 0.0
2015-Jun-25 15:30N 57°04' E 012°16'0 0.0
2015-Jun-25 14:24N 57°04' E 012°16'0 0.0
2015-Jun-25 13:30N 57°04' E 012°16'0 0.0
2015-Jun-25 12:30N 57°04' E 012°16'0 0.0
2015-Jun-25 11:30N 57°04' E 012°16'0 0.0
2015-Jun-25 10:30N 57°04' E 012°16'0 0.0
2015-Jun-25 09:24N 57°04' E 012°16'0 0.0
2015-Jun-25 08:24N 57°04' E 012°16'0 0.0
2015-Jun-25 07:30N 57°04' E 012°16'0 0.0
2015-Jun-25 05:30N 57°04' E 012°16'0 0.0
2015-Jun-25 04:30N 57°04' E 012°16'0 0.0
2015-Jun-25 03:30N 57°04' E 012°16'0 0.0
2015-Jun-25 02:24N 57°04' E 012°16'0 0.0
2015-Jun-25 01:30N 57°04' E 012°16'0 0.0
2015-Jun-25 00:30N 57°04' E 012°16'0 0.0
2015-Jun-24 23:30N 57°04' E 012°16'0 0.0
2015-Jun-24 22:30N 57°04' E 012°16'0 0.0
2015-Jun-24 21:30N 57°04' E 012°16'0 0.0
2015-Jun-24 20:30N 57°04' E 012°16'0 0.0
2015-Jun-24 19:30N 57°04' E 012°16'0 0.0
2015-Jun-24 18:30N 57°04' E 012°16'0 0.0
2015-Jun-24 17:30N 57°04' E 012°16'0 0.0
2015-Jun-24 16:30N 57°04' E 012°16'0 0.0
2015-Jun-24 15:30N 57°04' E 012°16'0 0.0
2015-Jun-24 14:30N 57°04' E 012°16'0 0.0
2015-Jun-24 13:30N 57°04' E 012°16'  
Track history (hours):
 
Tides and Currents Weather Stations Pressure Air Temp Water Temp Dewpoint Dewpoint Depression Visibility Wind Speed Wind Dir Waves Ship Positions

Vg 117 Kungsvik

Last reported at 2015-Jul-04 12:20 UTC. Time now 2015-Jul-04 18:55 UTC.
Position N 57°04' E 012°16'.

Length 17 m.

Type: Fishing. MMSI: 266137000.

Date/timePositionNaut miles runAvg speedWind from/ knotsBaromVisibWave heightAir tempDewpointWater temp
2015-Jul-04 12:20N 57°04' E 012°16'0 0.0
2015-Jul-03 23:20N 57°04' E 012°16'0 0.0
2015-Jul-03 05:17N 57°03' E 012°16'5 5.9
2015-Jul-03 04:30N 57°04' E 012°08'12 1.9
2015-Jul-02 22:08N 56°60' E 011°47'1 1.6
2015-Jul-02 21:25N 57°01' E 011°46'2 2.5
2015-Jul-02 20:32N 57°02' E 011°49'6 3.2
2015-Jul-02 18:33N 57°03' E 012°01'8 7.7
2015-Jul-02 17:32N 57°03' E 012°15'1 0.1
2015-Jul-02 06:26N 57°04' E 012°16'4 4.7
2015-Jul-02 05:33N 57°03' E 012°09'6 5.6
2015-Jul-02 04:29N 57°03' E 011°58'2 2.0
2015-Jul-02 03:25N 57°02' E 011°54'3 2.5
2015-Jul-02 02:13N 57°01' E 011°49'2 2.6
2015-Jul-02 01:28N 56°60' E 011°46'2 1.7
2015-Jul-02 00:31N 57°01' E 011°48'2 2.6
2015-Jul-01 23:33N 57°02' E 011°52'3 1.5
2015-Jul-01 21:18N 57°00' E 011°47'8 2.9
2015-Jul-01 18:29N 57°03' E 012°01'8 7.4
2015-Jul-01 17:26N 57°03' E 012°15'1 0.2
2015-Jul-01 15:07N 57°04' E 012°16'0 0.0
2015-Jul-01 14:19N 57°04' E 012°16'0 0.0
2015-Jul-01 13:31N 57°04' E 012°16'0 0.0
2015-Jul-01 12:07N 57°04' E 012°16'0 0.0
2015-Jul-01 10:25N 57°04' E 012°16'0 0.0
2015-Jul-01 08:25N 57°04' E 012°16'0 0.0
2015-Jul-01 07:25N 57°04' E 012°16'5 2.6
2015-Jul-01 05:25N 57°03' E 012°07'5 5.4
2015-Jul-01 04:33N 57°03' E 011°58'2 2.0
2015-Jul-01 03:33N 57°03' E 011°55'5 2.3
2015-Jul-01 01:13N 57°00' E 011°46'2 2.3
2015-Jul-01 00:33N 57°01' E 011°49'3 2.6
2015-Jun-30 23:33N 57°02' E 011°53'1 1.3
2015-Jun-30 22:33N 57°01' E 011°51'2 1.3
2015-Jun-30 21:08N 57°00' E 011°48'2 2.6
2015-Jun-30 20:26N 57°01' E 011°51'2 2.5
2015-Jun-30 19:33N 57°03' E 011°54'4 3.6
2015-Jun-30 18:32N 57°03' E 012°01'8 7.4
2015-Jun-30 17:28N 57°03' E 012°16'0 0.1
2015-Jun-30 12:32N 57°04' E 012°16'0 0.0
2015-Jun-30 11:32N 57°04' E 012°16'0 0.0
2015-Jun-30 08:26N 57°04' E 012°16'0 0.0
2015-Jun-30 07:32N 57°04' E 012°16'0 0.0
2015-Jun-30 06:26N 57°04' E 012°16'4 4.4
2015-Jun-30 05:30N 57°03' E 012°09'6 5.1
2015-Jun-30 04:16N 57°03' E 011°57'6 1.0
2015-Jun-29 22:22N 56°58' E 011°50'3 1.7
2015-Jun-29 20:30N 57°01' E 011°51'3 2.5
2015-Jun-29 19:16N 57°03' E 011°56'3 4.2
2015-Jun-29 18:30N 57°03' E 012°02'7 7.6
2015-Jun-29 17:33N 57°03' E 012°15'1 0.8
2015-Jun-29 16:30N 57°04' E 012°16'0 0.0
2015-Jun-29 08:24N 57°04' E 012°16'0 0.0
2015-Jun-29 07:18N 57°04' E 012°16'1 1.0
2015-Jun-29 06:31N 57°03' E 012°15'3 3.4
2015-Jun-29 05:31N 57°03' E 012°09'11 1.4
2015-Jun-28 21:33N 56°59' E 011°49'2 1.8
2015-Jun-28 20:33N 57°01' E 011°50'3 2.5
2015-Jun-28 19:32N 57°03' E 011°54'3 3.1
2015-Jun-28 18:33N 57°03' E 011°60'7 6.9
2015-Jun-28 17:33N 57°03' E 012°12'2 2.2
2015-Jun-28 16:30N 57°04' E 012°16'0 0.0
2015-Jun-28 15:30N 57°04' E 012°16'0 0.0
2015-Jun-28 14:30N 57°04' E 012°16'0 0.0
2015-Jun-28 13:30N 57°04' E 012°16'0 0.0
2015-Jun-28 12:30N 57°04' E 012°16'0 0.0
2015-Jun-28 11:30N 57°04' E 012°16'0 0.0
2015-Jun-28 10:30N 57°04' E 012°16'0 0.0
2015-Jun-28 09:30N 57°04' E 012°16'0 0.0
2015-Jun-28 08:30N 57°04' E 012°16'0 0.0
2015-Jun-28 07:30N 57°04' E 012°16'0 0.0
2015-Jun-28 06:30N 57°04' E 012°16'0 0.0
2015-Jun-28 05:30N 57°04' E 012°16'0 0.0
2015-Jun-28 04:30N 57°04' E 012°16'0 0.0
2015-Jun-28 03:30N 57°04' E 012°16'0 0.0
2015-Jun-28 02:24N 57°04' E 012°16'0 0.0
2015-Jun-28 01:24N 57°04' E 012°16'0 0.0
2015-Jun-28 00:30N 57°04' E 012°16'0 0.0
2015-Jun-27 23:30N 57°04' E 012°16'0 0.0
2015-Jun-27 22:30N 57°04' E 012°16'0 0.0
2015-Jun-27 21:30N 57°04' E 012°16'0 0.0
2015-Jun-27 20:30N 57°04' E 012°16'0 0.0
2015-Jun-27 19:24N 57°04' E 012°16'0 0.0
2015-Jun-27 18:30N 57°04' E 012°16'0 0.0
2015-Jun-27 17:30N 57°04' E 012°16'0 0.0
2015-Jun-27 16:30N 57°04' E 012°16'0 0.0
2015-Jun-27 15:30N 57°04' E 012°16'0 0.0
2015-Jun-27 14:30N 57°04' E 012°16'0 0.0
2015-Jun-27 13:30N 57°04' E 012°16'0 0.0
2015-Jun-27 12:30N 57°04' E 012°16'0 0.0
2015-Jun-27 11:30N 57°04' E 012°16'0 0.0
2015-Jun-27 10:30N 57°04' E 012°16'0 0.0
2015-Jun-27 09:24N 57°04' E 012°16'0 0.0
2015-Jun-27 08:30N 57°04' E 012°16'0 0.0
2015-Jun-27 07:30N 57°04' E 012°16'0 0.0
2015-Jun-27 06:24N 57°04' E 012°16'0 0.0
2015-Jun-27 05:24N 57°04' E 012°16'0 0.0
2015-Jun-27 04:30N 57°04' E 012°16'0 0.0
2015-Jun-27 03:30N 57°04' E 012°16'0 0.0
2015-Jun-27 02:30N 57°04' E 012°16'0 0.0
2015-Jun-27 01:24N 57°04' E 012°16'0 0.0
2015-Jun-27 00:24N 57°04' E 012°16'0 0.0
2015-Jun-26 23:30N 57°04' E 012°16'0 0.0
2015-Jun-26 22:30N 57°04' E 012°16'0 0.0
2015-Jun-26 21:30N 57°04' E 012°16'0 0.0
2015-Jun-26 20:24N 57°04' E 012°16'0 0.0
2015-Jun-26 19:24N 57°04' E 012°16'0 0.0
2015-Jun-26 18:30N 57°04' E 012°16'0 0.0
2015-Jun-26 17:30N 57°04' E 012°16'0 0.0
2015-Jun-26 16:24N 57°04' E 012°16'0 0.0
2015-Jun-26 15:30N 57°04' E 012°16'0 0.0
2015-Jun-26 14:30N 57°04' E 012°16'0 0.0
2015-Jun-26 13:30N 57°04' E 012°16'0 0.0
2015-Jun-26 11:30N 57°04' E 012°16'0 0.0
2015-Jun-26 10:30N 57°04' E 012°16'0 0.0
2015-Jun-26 09:30N 57°04' E 012°16'0 0.0
2015-Jun-26 08:30N 57°04' E 012°16'0 0.0
2015-Jun-26 07:18N 57°04' E 012°16'0 0.0
2015-Jun-26 06:24N 57°04' E 012°16'0 0.0
2015-Jun-26 05:24N 57°04' E 012°16'0 0.0
2015-Jun-26 04:30N 57°04' E 012°16'0 0.0
2015-Jun-26 03:30N 57°04' E 012°16'0 0.0
2015-Jun-26 02:30N 57°04' E 012°16'0 0.0
2015-Jun-26 01:12N 57°04' E 012°16'0 0.0
2015-Jun-26 00:30N 57°04' E 012°16'0 0.0
2015-Jun-25 23:30N 57°04' E 012°16'0 0.0
2015-Jun-25 22:30N 57°04' E 012°16'0 0.0
2015-Jun-25 21:12N 57°04' E 012°16'0 0.0
2015-Jun-25 20:30N 57°04' E 012°16'0 0.0
2015-Jun-25 19:30N 57°04' E 012°16'0 0.0
2015-Jun-25 18:18N 57°04' E 012°16'0 0.0
2015-Jun-25 17:30N 57°04' E 012°16'0 0.0
2015-Jun-25 16:24N 57°04' E 012°16'0 0.0
2015-Jun-25 15:30N 57°04' E 012°16'0 0.0
2015-Jun-25 14:24N 57°04' E 012°16'0 0.0
2015-Jun-25 13:30N 57°04' E 012°16'0 0.0
2015-Jun-25 12:30N 57°04' E 012°16'0 0.0
2015-Jun-25 11:30N 57°04' E 012°16'0 0.0
2015-Jun-25 10:30N 57°04' E 012°16'0 0.0
2015-Jun-25 09:24N 57°04' E 012°16'0 0.0
2015-Jun-25 08:24N 57°04' E 012°16'0 0.0
2015-Jun-25 07:30N 57°04' E 012°16'0 0.0
2015-Jun-25 05:30N 57°04' E 012°16'0 0.0
2015-Jun-25 04:30N 57°04' E 012°16'0 0.0
2015-Jun-25 03:30N 57°04' E 012°16'0 0.0
2015-Jun-25 02:24N 57°04' E 012°16'0 0.0
2015-Jun-25 01:30N 57°04' E 012°16'0 0.0
2015-Jun-25 00:30N 57°04' E 012°16'0 0.0
2015-Jun-24 23:30N 57°04' E 012°16'0 0.0
2015-Jun-24 22:30N 57°04' E 012°16'0 0.0
2015-Jun-24 21:30N 57°04' E 012°16'0 0.0
2015-Jun-24 20:30N 57°04' E 012°16'0 0.0
2015-Jun-24 19:30N 57°04' E 012°16'0 0.0
2015-Jun-24 18:30N 57°04' E 012°16'0 0.0
2015-Jun-24 17:30N 57°04' E 012°16'0 0.0
2015-Jun-24 16:30N 57°04' E 012°16'0 0.0
2015-Jun-24 15:30N 57°04' E 012°16'0 0.0
2015-Jun-24 14:30N 57°04' E 012°16'0 0.0
2015-Jun-24 13:30N 57°04' E 012°16'  

Dump ship's entire track history